createdAt,value
2022-09-10T00:01:02.940Z,83.33
2022-09-10T00:03:30.535Z,82.96
2022-09-10T00:05:58.613Z,83.06
2022-09-10T00:08:26.410Z,83.29
2022-09-10T00:10:54.582Z,82.96
2022-09-10T00:13:24.297Z,83.25
2022-09-10T00:15:54.752Z,83.19
2022-09-10T00:18:24.088Z,83.55
2022-09-10T00:20:53.753Z,83.81
2022-09-10T00:23:25.851Z,84.15
2022-09-10T00:25:54.547Z,83.87
2022-09-10T00:28:25.335Z,83.97
2022-09-10T00:30:55.268Z,83.68
2022-09-10T00:33:24.101Z,83.74
2022-09-10T00:35:51.854Z,83.55
2022-09-10T00:38:19.562Z,83.46
2022-09-10T00:40:47.598Z,82.75
2022-09-10T00:43:18.697Z,82.85
2022-09-10T00:45:51.401Z,83.12
2022-09-10T00:48:23.506Z,82.91
2022-09-10T00:50:52.248Z,82.93
2022-09-10T00:53:23.450Z,82.88
2022-09-10T00:55:54.540Z,82.36
2022-09-10T00:58:24.506Z,82.43
2022-09-10T01:00:57.368Z,82.40
2022-09-10T01:03:25.898Z,82.26
2022-09-10T01:05:54.903Z,82.01
2022-09-10T01:08:22.546Z,81.88
2022-09-10T01:11:10.094Z,82.01
2022-09-10T01:13:55.082Z,81.97
2022-09-10T01:16:34.726Z,81.84
2022-09-10T01:19:17.898Z,81.74
2022-09-10T01:21:55.103Z,81.59
2022-09-10T01:24:41.608Z,81.61
2022-09-10T01:27:34.189Z,81.57
2022-09-10T01:30:08.927Z,82.04
2022-09-10T01:32:57.607Z,82.24
2022-09-10T01:35:36.669Z,82.52
2022-09-10T01:38:09.325Z,82.49
2022-09-10T01:40:38.413Z,82.50
2022-09-10T01:43:12.651Z,82.67
2022-09-10T01:45:59.010Z,82.46
2022-09-10T01:48:42.828Z,83.00
2022-09-10T01:51:22.109Z,82.56
2022-09-10T01:54:11.132Z,82.44
2022-09-10T01:56:49.440Z,82.97
2022-09-10T01:59:26.080Z,83.79
2022-09-10T02:02:01.288Z,83.50
2022-09-10T02:04:30.845Z,83.40
2022-09-10T02:06:59.669Z,83.50
2022-09-10T02:09:28.406Z,83.59
2022-09-10T02:11:56.747Z,83.87
2022-09-10T02:14:50.822Z,84.08
2022-09-10T02:17:44.824Z,84.21
2022-09-10T02:20:15.290Z,84.02
2022-09-10T02:22:48.789Z,84.33
2022-09-10T02:25:17.218Z,84.48
2022-09-10T02:27:45.463Z,83.93
2022-09-10T02:30:16.076Z,83.49
2022-09-10T02:32:43.788Z,83.44
2022-09-10T02:35:16.006Z,83.43
2022-09-10T02:37:46.589Z,83.55
2022-09-10T02:40:14.684Z,83.52
2022-09-10T02:42:46.687Z,83.78
2022-09-10T02:45:20.606Z,83.88
2022-09-10T02:47:48.898Z,83.68
2022-09-10T02:50:18.603Z,83.71
2022-09-10T02:52:46.651Z,83.77
2022-09-10T02:55:15.135Z,83.59
2022-09-10T02:57:43.942Z,83.43
2022-09-10T03:00:12.701Z,83.40
2022-09-10T03:02:41.790Z,83.59
2022-09-10T03:05:10.996Z,83.37
2022-09-10T03:07:38.642Z,83.29
2022-09-10T03:10:07.051Z,83.08
2022-09-10T03:12:34.649Z,82.43
2022-09-10T03:15:02.846Z,81.88
2022-09-10T03:17:30.504Z,81.22
2022-09-10T03:19:59.976Z,81.21
2022-09-10T03:22:28.401Z,81.04
2022-09-10T03:24:56.414Z,80.95
2022-09-10T03:27:25.326Z,80.79
2022-09-10T03:29:54.750Z,80.49
2022-09-10T03:32:24.351Z,80.50
2022-09-10T03:34:52.251Z,80.82
2022-09-10T03:37:24.074Z,80.89
2022-09-10T03:39:53.066Z,80.25
2022-09-10T03:42:20.991Z,80.26
2022-09-10T03:44:49.140Z,80.44
2022-09-10T03:47:17.918Z,80.48
2022-09-10T03:49:45.662Z,81.15
2022-09-10T03:52:14.732Z,80.96
2022-09-10T03:54:45.913Z,81.17
2022-09-10T03:57:14.304Z,80.88
2022-09-10T03:59:42.202Z,81.17
2022-09-10T04:02:12.695Z,80.44
2022-09-10T04:04:40.344Z,79.93
2022-09-10T04:07:10.835Z,79.77
2022-09-10T04:09:38.440Z,79.39
2022-09-10T04:12:09.884Z,79.10
2022-09-10T04:14:37.727Z,79.05
2022-09-10T04:17:05.883Z,79.05
2022-09-10T04:19:35.342Z,79.45
2022-09-10T04:22:03.704Z,79.47
2022-09-10T04:24:32.482Z,79.16
2022-09-10T04:27:01.761Z,79.16
2022-09-10T04:29:31.401Z,79.21
2022-09-10T04:31:59.839Z,79.43
2022-09-10T04:34:31.559Z,79.14
2022-09-10T04:36:59.696Z,79.08
2022-09-10T04:39:28.150Z,79.01
2022-09-10T04:41:56.086Z,79.34
2022-09-10T04:44:24.710Z,79.17
2022-09-10T04:46:53.994Z,79.27
2022-09-10T04:49:21.641Z,79.31
2022-09-10T04:51:50.041Z,79.52
2022-09-10T04:54:17.852Z,79.49
2022-09-10T04:56:47.624Z,79.59
2022-09-10T04:59:15.422Z,79.93
2022-09-10T05:01:45.726Z,79.50
2022-09-10T05:04:14.930Z,79.66
2022-09-10T05:06:43.418Z,79.99
2022-09-10T05:09:12.443Z,80.37
2022-09-10T05:11:41.291Z,80.26
2022-09-10T05:14:10.138Z,79.98
2022-09-10T05:16:38.921Z,80.11
2022-09-10T05:19:06.976Z,80.06
2022-09-10T05:21:43.907Z,80.25
2022-09-10T05:24:11.575Z,80.06
2022-09-10T05:26:39.941Z,80.53
2022-09-10T05:29:07.646Z,80.58
2022-09-10T05:31:35.787Z,80.92
2022-09-10T05:34:04.334Z,81.50
2022-09-10T05:36:33.469Z,81.68
2022-09-10T05:39:04.252Z,82.61
2022-09-10T05:41:35.583Z,84.35
2022-09-10T05:44:03.475Z,85.47
2022-09-10T05:46:31.454Z,85.78
2022-09-10T05:49:03.703Z,86.64
2022-09-10T05:51:31.434Z,86.49
2022-09-10T05:54:04.998Z,87.14
2022-09-10T05:56:35.039Z,87.78
2022-09-10T05:59:04.039Z,87.09
2022-09-10T06:01:33.302Z,86.86
2022-09-10T06:04:03.156Z,87.21
2022-09-10T06:06:32.340Z,86.67
2022-09-10T06:09:07.811Z,86.84
2022-09-10T06:11:51.626Z,87.21
2022-09-10T06:14:20.778Z,87.18
2022-09-10T06:16:49.359Z,87.46
2022-09-10T06:19:17.142Z,87.69
2022-09-10T06:21:46.131Z,87.14
2022-09-10T06:24:15.900Z,86.51
2022-09-10T06:26:44.935Z,86.87
2022-09-10T06:29:14.667Z,87.15
2022-09-10T06:31:43.108Z,87.18
2022-09-10T06:34:13.699Z,86.56
2022-09-10T06:36:41.928Z,86.46
2022-09-10T06:39:09.720Z,86.64
2022-09-10T06:41:49.767Z,86.23
2022-09-10T06:44:35.902Z,86.27
2022-09-10T06:47:55.832Z,86.01
2022-09-10T06:50:02.605Z,85.95
2022-09-10T06:52:32.994Z,86.31
2022-09-10T06:55:06.007Z,85.83
2022-09-10T06:57:40.778Z,85.78
2022-09-10T07:00:10.686Z,85.88
2022-09-10T07:02:39.796Z,85.87
2022-09-10T07:05:08.704Z,85.91
2022-09-10T07:07:38.799Z,86.05
2022-09-10T07:10:09.231Z,85.96
2022-09-10T07:12:37.497Z,85.77
2022-09-10T07:15:10.074Z,86.05
2022-09-10T07:17:38.194Z,85.75
2022-09-10T07:20:08.290Z,85.73
2022-09-10T07:22:45.123Z,85.28
2022-09-10T07:25:14.836Z,85.32
2022-09-10T07:27:54.779Z,84.66
2022-09-10T07:30:25.283Z,84.98
2022-09-10T07:32:53.410Z,84.50
2022-09-10T07:35:25.744Z,84.43
2022-09-10T07:37:55.052Z,85.47
2022-09-10T07:40:23.995Z,85.07
2022-09-10T07:42:52.439Z,85.59
2022-09-10T07:45:21.327Z,86.18
2022-09-10T07:47:50.384Z,86.00
2022-09-10T07:50:19.085Z,85.98
2022-09-10T07:52:49.835Z,85.36
2022-09-10T07:55:18.248Z,85.63
2022-09-10T07:57:47.143Z,85.71
2022-09-10T08:00:16.831Z,84.81
2022-09-10T08:02:50.541Z,85.00
2022-09-10T08:05:21.632Z,85.86
2022-09-10T08:07:53.795Z,85.34
2022-09-10T08:10:22.792Z,85.42
2022-09-10T08:12:52.833Z,85.19
2022-09-10T08:15:22.186Z,84.67
2022-09-10T08:17:51.237Z,84.57
2022-09-10T08:20:22.423Z,83.73
2022-09-10T08:22:50.235Z,82.31
2022-09-10T08:25:20.072Z,82.09
2022-09-10T08:27:48.221Z,81.33
2022-09-10T08:30:16.743Z,81.38
2022-09-10T08:32:44.399Z,81.14
2022-09-10T08:35:16.038Z,81.49
2022-09-10T08:37:43.679Z,82.13
2022-09-10T08:40:13.317Z,81.59
2022-09-10T08:42:46.329Z,81.93
2022-09-10T08:45:19.042Z,82.12
2022-09-10T08:47:53.317Z,82.48
2022-09-10T08:50:33.643Z,81.90
2022-09-10T08:53:18.023Z,81.91
2022-09-10T08:55:49.074Z,81.37
2022-09-10T08:58:23.556Z,79.62
2022-09-10T09:00:56.168Z,79.19
2022-09-10T09:03:30.861Z,80.07
2022-09-10T09:06:03.106Z,79.91
2022-09-10T09:08:48.388Z,79.44
2022-09-10T09:11:26.844Z,81.32
2022-09-10T09:14:13.167Z,79.62
2022-09-10T09:17:06.196Z,81.01
2022-09-10T09:19:42.160Z,79.91
2022-09-10T09:22:18.698Z,80.27
2022-09-10T09:24:57.386Z,80.53
2022-09-10T09:27:28.177Z,80.19
2022-09-10T09:30:01.233Z,79.63
2022-09-10T09:32:34.069Z,79.00
2022-09-10T09:35:10.633Z,79.80
2022-09-10T09:37:43.205Z,80.15
2022-09-10T09:40:17.650Z,80.91
2022-09-10T09:42:52.464Z,80.68
2022-09-10T09:45:29.106Z,79.93
2022-09-10T09:47:57.062Z,81.01
2022-09-10T09:50:24.790Z,80.50
2022-09-10T09:52:56.429Z,80.28
2022-09-10T09:55:32.904Z,80.47
2022-09-10T09:58:33.483Z,82.32
2022-09-10T10:01:23.838Z,80.34
2022-09-10T10:03:54.445Z,79.81
2022-09-10T10:06:25.063Z,80.15
2022-09-10T10:09:00.423Z,80.89
2022-09-10T10:11:52.825Z,78.43
2022-09-10T10:14:36.586Z,78.09
2022-09-10T10:17:32.464Z,76.75
2022-09-10T10:20:04.702Z,78.05
2022-09-10T10:22:32.722Z,77.67
2022-09-10T10:25:03.947Z,77.22
2022-09-10T10:27:35.350Z,77.62
2022-09-10T10:30:07.450Z,77.10
2022-09-10T10:32:45.395Z,77.66
2022-09-10T10:35:44.531Z,75.88
2022-09-10T10:38:26.643Z,76.12
2022-09-10T10:41:11.754Z,73.39
2022-09-10T10:43:50.411Z,75.43
2022-09-10T10:46:21.627Z,73.90
2022-09-10T10:49:05.244Z,74.32
2022-09-10T10:51:42.645Z,75.86
2022-09-10T10:54:27.128Z,76.94
2022-09-10T10:57:04.298Z,76.34
2022-09-10T10:59:47.572Z,76.10
2022-09-10T11:02:18.912Z,77.00
2022-09-10T11:04:51.806Z,76.96
2022-09-10T11:07:27.327Z,77.35
2022-09-10T11:10:01.440Z,76.97
2022-09-10T11:12:34.816Z,77.44
2022-09-10T11:15:19.431Z,77.22
2022-09-10T11:17:54.520Z,76.34
2022-09-10T11:20:29.999Z,77.07
2022-09-10T11:23:07.671Z,77.35
2022-09-10T11:25:40.545Z,77.88
2022-09-10T11:28:13.831Z,78.02
2022-09-10T11:30:46.436Z,74.65
2022-09-10T11:33:21.359Z,78.00
2022-09-10T11:35:56.211Z,76.08
2022-09-10T11:38:29.398Z,75.35
2022-09-10T11:41:09.048Z,75.71
2022-09-10T11:43:44.076Z,76.55
2022-09-10T11:46:15.767Z,76.66
2022-09-10T11:48:49.259Z,79.21
2022-09-10T11:51:23.272Z,79.93
2022-09-10T11:53:51.408Z,80.09
2022-09-10T11:56:50.794Z,80.20
2022-09-10T11:59:37.484Z,80.13
2022-09-10T12:02:27.300Z,80.59
2022-09-10T12:05:01.705Z,79.20
2022-09-10T12:07:41.379Z,79.25
2022-09-10T12:10:19.790Z,78.55
2022-09-10T12:12:50.363Z,77.80
2022-09-10T12:15:22.943Z,78.90
2022-09-10T12:17:56.700Z,76.31
2022-09-10T12:20:29.570Z,76.53
2022-09-10T12:22:58.355Z,80.65
2022-09-10T12:25:33.913Z,77.90
2022-09-10T12:28:05.695Z,78.21
2022-09-10T12:31:03.132Z,79.77
2022-09-10T12:33:59.685Z,78.27
2022-09-10T12:37:17.048Z,76.93
2022-09-10T12:39:45.575Z,77.09
2022-09-10T12:42:30.483Z,75.69
2022-09-10T12:44:59.293Z,73.64
2022-09-10T12:47:52.399Z,73.56
2022-09-10T12:50:28.667Z,74.99
2022-09-10T12:53:16.347Z,73.10
2022-09-10T12:55:54.539Z,71.29
2022-09-10T12:58:32.172Z,73.44
2022-09-10T13:01:10.341Z,71.79
2022-09-10T13:03:54.752Z,71.85
2022-09-10T13:06:35.803Z,72.60
2022-09-10T13:09:17.162Z,73.07
2022-09-10T13:11:49.510Z,73.51
2022-09-10T13:14:21.012Z,73.30
2022-09-10T13:16:48.707Z,73.48
2022-09-10T13:19:54.845Z,71.53
2022-09-10T13:23:02.779Z,71.82
2022-09-10T13:25:40.207Z,73.33
2022-09-10T13:28:46.380Z,72.85
2022-09-10T13:31:25.921Z,72.20
2022-09-10T13:34:29.592Z,69.74
2022-09-10T13:37:15.764Z,69.24
2022-09-10T13:40:01.628Z,70.96
2022-09-10T13:42:47.239Z,70.95
2022-09-10T13:45:38.608Z,70.06
2022-09-10T13:48:15.331Z,69.59
2022-09-10T13:50:51.943Z,68.94
2022-09-10T13:53:26.671Z,70.78
2022-09-10T13:55:58.980Z,68.51
2022-09-10T13:58:31.614Z,69.83
2022-09-10T14:01:03.327Z,68.16
2022-09-10T14:03:33.387Z,68.79
2022-09-10T14:06:04.130Z,70.68
2022-09-10T14:08:38.566Z,69.64
2022-09-10T14:11:09.046Z,72.97
2022-09-10T14:13:41.031Z,74.60
2022-09-10T14:16:12.449Z,79.71
2022-09-10T14:18:45.987Z,83.24
2022-09-10T14:21:15.170Z,85.12
2022-09-10T14:23:49.413Z,85.94
2022-09-10T14:26:23.467Z,86.15
2022-09-10T14:28:55.126Z,85.64
2022-09-10T14:31:35.426Z,83.37
2022-09-10T14:34:26.189Z,84.63
2022-09-10T14:36:53.868Z,84.55
2022-09-10T14:39:24.209Z,87.07
2022-09-10T14:42:10.212Z,87.01
2022-09-10T14:44:41.942Z,85.53
2022-09-10T14:47:15.878Z,86.81
2022-09-10T14:49:47.363Z,84.74
2022-09-10T14:52:15.624Z,83.76
2022-09-10T14:54:46.698Z,84.27
2022-09-10T14:57:17.017Z,83.48
2022-09-10T14:59:46.203Z,82.76
2022-09-10T15:02:18.070Z,82.59
2022-09-10T15:04:45.986Z,80.94
2022-09-10T15:07:13.796Z,80.69
2022-09-10T15:09:41.807Z,79.49
2022-09-10T15:12:16.244Z,78.11
2022-09-10T15:14:43.967Z,78.35
2022-09-10T15:17:14.676Z,76.25
2022-09-10T15:19:42.547Z,77.54
2022-09-10T15:22:20.610Z,75.65
2022-09-10T15:25:08.466Z,74.71
2022-09-10T15:27:38.388Z,74.62
2022-09-10T15:30:07.492Z,73.58
2022-09-10T15:32:35.116Z,74.21
2022-09-10T15:35:03.293Z,72.78
2022-09-10T15:37:30.869Z,72.63
2022-09-10T15:39:58.612Z,71.52
2022-09-10T15:42:26.331Z,71.10
2022-09-10T15:44:55.291Z,69.19
2022-09-10T15:47:23.328Z,67.75
2022-09-10T15:49:52.769Z,67.96
2022-09-10T15:52:20.375Z,67.68
2022-09-10T15:54:48.055Z,69.55
2022-09-10T15:57:15.673Z,70.95
2022-09-10T15:59:43.262Z,73.01
2022-09-10T16:02:13.045Z,73.57
2022-09-10T16:04:43.027Z,75.12
2022-09-10T16:07:10.943Z,75.29
2022-09-10T16:09:38.890Z,74.88
2022-09-10T16:12:06.812Z,74.40
2022-09-10T16:14:34.729Z,74.95
2022-09-10T16:17:02.416Z,74.39
2022-09-10T16:19:31.730Z,74.56
2022-09-10T16:21:59.310Z,74.36
2022-09-10T16:24:27.236Z,74.45
2022-09-10T16:26:54.837Z,73.48
2022-09-10T16:29:22.875Z,74.43
2022-09-10T16:31:50.618Z,75.04
2022-09-10T16:34:20.088Z,74.77
2022-09-10T16:36:50.903Z,75.27
2022-09-10T16:39:20.195Z,75.42
2022-09-10T16:41:49.167Z,75.08
2022-09-10T16:44:18.467Z,75.53
2022-09-10T16:46:47.518Z,75.39
2022-09-10T16:49:18.253Z,75.28
2022-09-10T16:51:47.313Z,75.56
2022-09-10T16:54:19.453Z,75.28
2022-09-10T16:56:48.925Z,75.02
2022-09-10T16:59:18.112Z,75.67
2022-09-10T17:01:47.738Z,76.24
2022-09-10T17:04:21.311Z,76.23
2022-09-10T17:06:51.792Z,74.92
2022-09-10T17:09:21.250Z,74.73
2022-09-10T17:11:49.194Z,75.70
2022-09-10T17:14:16.813Z,75.95
2022-09-10T17:16:44.814Z,75.94
2022-09-10T17:19:15.411Z,75.24
2022-09-10T17:21:44.812Z,76.27
2022-09-10T17:24:14.254Z,76.10
2022-09-10T17:26:43.539Z,76.60
2022-09-10T17:29:14.594Z,76.62
2022-09-10T17:31:42.884Z,76.79
2022-09-10T17:34:13.143Z,78.02
2022-09-10T17:36:41.756Z,77.56
2022-09-10T17:39:09.703Z,76.90
2022-09-10T17:41:37.511Z,77.52
2022-09-10T17:44:07.135Z,77.70
2022-09-10T17:46:36.139Z,77.81
2022-09-10T17:49:04.793Z,77.94
2022-09-10T17:51:34.605Z,78.09
2022-09-10T17:54:03.519Z,78.82
2022-09-10T17:56:31.827Z,79.57
2022-09-10T17:59:02.270Z,79.85
2022-09-10T18:01:33.040Z,79.15
2022-09-10T18:04:01.471Z,79.61
2022-09-10T18:06:29.821Z,80.56
2022-09-10T18:09:00.780Z,81.46
2022-09-10T18:11:30.942Z,82.41
2022-09-10T18:14:00.767Z,82.35
2022-09-10T18:16:30.014Z,81.60
2022-09-10T18:19:01.015Z,81.79
2022-09-10T18:21:31.250Z,82.49
2022-09-10T18:24:01.687Z,82.02
2022-09-10T18:26:31.544Z,82.46
2022-09-10T18:29:01.924Z,82.90
2022-09-10T18:31:31.886Z,83.96
2022-09-10T18:34:02.441Z,85.20
2022-09-10T18:36:31.434Z,85.37
2022-09-10T18:38:59.466Z,85.08
2022-09-10T18:41:29.359Z,84.51
2022-09-10T18:43:59.657Z,85.58
2022-09-10T18:46:29.013Z,84.94
2022-09-10T18:48:57.735Z,85.31
2022-09-10T18:51:28.625Z,85.37
2022-09-10T18:53:58.490Z,85.09
2022-09-10T18:56:29.773Z,84.94
2022-09-10T18:59:00.809Z,84.96
2022-09-10T19:01:30.346Z,85.48
2022-09-10T19:03:59.010Z,85.55
2022-09-10T19:06:29.806Z,86.08
2022-09-10T19:08:59.560Z,85.54
2022-09-10T19:11:32.911Z,85.60
2022-09-10T19:14:03.339Z,85.13
2022-09-10T19:16:32.965Z,85.41
2022-09-10T19:19:03.136Z,86.57
2022-09-10T19:21:33.206Z,86.79
2022-09-10T19:24:01.936Z,86.90
2022-09-10T19:26:31.487Z,86.82
2022-09-10T19:29:01.348Z,86.37
2022-09-10T19:31:31.056Z,86.12
2022-09-10T19:34:01.942Z,85.91
2022-09-10T19:36:34.017Z,86.13
2022-09-10T19:39:04.744Z,86.01
2022-09-10T19:41:33.954Z,86.00
2022-09-10T19:44:03.296Z,85.68
2022-09-10T19:46:31.007Z,86.49
2022-09-10T19:49:00.683Z,86.80
2022-09-10T19:51:30.153Z,87.25
2022-09-10T19:54:00.671Z,86.88
2022-09-10T19:56:31.053Z,87.22
2022-09-10T19:59:00.149Z,87.60
2022-09-10T20:01:31.151Z,87.82
2022-09-10T20:04:01.080Z,87.85
2022-09-10T20:06:30.369Z,88.07
2022-09-10T20:08:59.373Z,88.04
2022-09-10T20:11:29.866Z,87.84
2022-09-10T20:13:59.836Z,87.46
2022-09-10T20:16:28.300Z,86.89
2022-09-10T20:18:55.974Z,87.00
2022-09-10T20:21:25.513Z,87.23
2022-09-10T20:23:55.622Z,86.87
2022-09-10T20:26:26.591Z,87.03
2022-09-10T20:28:56.904Z,87.55
2022-09-10T20:31:26.492Z,88.25
2022-09-10T20:33:56.349Z,88.04
2022-09-10T20:36:25.531Z,88.31
2022-09-10T20:38:54.139Z,88.57
2022-09-10T20:41:23.491Z,89.30
2022-09-10T20:43:53.984Z,89.26
2022-09-10T20:46:23.365Z,89.87
2022-09-10T20:48:52.519Z,89.50
2022-09-10T20:51:21.078Z,90.21
2022-09-10T20:53:49.272Z,89.47
2022-09-10T20:56:20.124Z,89.33
2022-09-10T20:58:48.477Z,88.69
2022-09-10T21:01:19.134Z,89.13
2022-09-10T21:03:48.598Z,89.32
2022-09-10T21:06:17.713Z,89.26
2022-09-10T21:08:47.074Z,89.84
2022-09-10T21:11:16.332Z,89.50
2022-09-10T21:13:45.930Z,89.43
2022-09-10T21:16:15.988Z,89.65
2022-09-10T21:18:52.234Z,89.50
2022-09-10T21:21:25.783Z,89.09
2022-09-10T21:23:55.577Z,89.42
2022-09-10T21:26:25.222Z,89.38
2022-09-10T21:28:54.152Z,89.30
2022-09-10T21:31:22.002Z,89.28
2022-09-10T21:33:51.214Z,88.15
2022-09-10T21:36:21.278Z,88.40
2022-09-10T21:38:49.660Z,88.25
2022-09-10T21:41:19.890Z,87.58
2022-09-10T21:43:48.411Z,87.48
2022-09-10T21:46:16.790Z,87.95
2022-09-10T21:48:45.022Z,87.15
2022-09-10T21:51:15.943Z,87.64
2022-09-10T21:53:45.085Z,88.10
2022-09-10T21:56:14.832Z,88.13
2022-09-10T21:58:43.617Z,87.76
2022-09-10T22:01:13.167Z,87.50
2022-09-10T22:03:41.252Z,88.38
2022-09-10T22:06:11.238Z,87.46
2022-09-10T22:08:42.027Z,88.32
2022-09-10T22:11:14.536Z,88.35
2022-09-10T22:13:43.019Z,88.53
2022-09-10T22:16:13.121Z,88.66
2022-09-10T22:18:41.391Z,87.70
2022-09-10T22:21:10.140Z,87.66
2022-09-10T22:23:40.314Z,87.95
2022-09-10T22:26:10.026Z,88.49
2022-09-10T22:28:38.503Z,88.73
2022-09-10T22:31:11.039Z,88.48
2022-09-10T22:33:39.337Z,88.53
2022-09-10T22:36:14.445Z,88.30
2022-09-10T22:38:44.406Z,88.31
2022-09-10T22:41:14.357Z,88.77
2022-09-10T22:43:42.754Z,88.07
2022-09-10T22:46:11.555Z,88.70
2022-09-10T22:48:42.435Z,89.03
2022-09-10T22:51:12.420Z,88.61
2022-09-10T22:53:41.809Z,89.04
2022-09-10T22:56:11.711Z,88.85
2022-09-10T22:58:40.550Z,88.61
2022-09-10T23:01:10.168Z,88.86
2022-09-10T23:03:38.584Z,88.98
2022-09-10T23:06:08.966Z,88.92
2022-09-10T23:08:38.054Z,89.01
2022-09-10T23:11:12.178Z,89.12
2022-09-10T23:13:39.976Z,88.58
2022-09-10T23:16:12.864Z,89.01
2022-09-10T23:18:41.323Z,88.50
2022-09-10T23:21:09.886Z,88.69
2022-09-10T23:23:38.269Z,88.33
2022-09-10T23:26:08.262Z,87.68
2022-09-10T23:28:38.447Z,88.05
2022-09-10T23:31:12.793Z,88.48
2022-09-10T23:33:42.643Z,88.77
2022-09-10T23:36:13.178Z,88.89
2022-09-10T23:38:41.724Z,89.63
2022-09-10T23:41:09.620Z,89.88
2022-09-10T23:43:40.384Z,90.44
2022-09-10T23:46:08.863Z,90.52
2022-09-10T23:48:37.643Z,90.20
2022-09-10T23:51:07.241Z,89.96
2022-09-10T23:53:35.316Z,89.68
2022-09-10T23:56:03.706Z,89.62
2022-09-10T23:58:32.224Z,90.17
